sensor_id;sensor_type;location;lat;lon;timestamp;pressure;altitude;pressure_sealevel;temperature;humidity
79378;BME280;68959;53.132;17.984;2023-04-25T00:01:58;99823.97;;;10.97;84.74
79378;BME280;68959;53.132;17.984;2023-04-25T00:04:27;99824.70;;;10.96;85.09
79378;BME280;68959;53.132;17.984;2023-04-25T00:06:54;99821.51;;;10.95;84.68
79378;BME280;68959;53.132;17.984;2023-04-25T00:09:21;99819.02;;;10.94;84.75
79378;BME280;68959;53.132;17.984;2023-04-25T00:11:48;99818.04;;;10.92;83.84
79378;BME280;68959;53.132;17.984;2023-04-25T00:14:14;99816.77;;;10.92;84.29
79378;BME280;68959;53.132;17.984;2023-04-25T00:16:41;99819.47;;;10.89;83.88
79378;BME280;68959;53.132;17.984;2023-04-25T00:19:10;99814.52;;;10.87;83.45
79378;BME280;68959;53.132;17.984;2023-04-25T00:21:37;99817.10;;;10.84;83.37
79378;BME280;68959;53.132;17.984;2023-04-25T00:24:07;99819.73;;;10.82;83.26
79378;BME280;68959;53.132;17.984;2023-04-25T00:26:34;99821.30;;;10.79;82.80
79378;BME280;68959;53.132;17.984;2023-04-25T00:29:02;99824.88;;;10.77;82.22
79378;BME280;68959;53.132;17.984;2023-04-25T00:31:29;99822.44;;;10.72;81.78
79378;BME280;68959;53.132;17.984;2023-04-25T00:33:56;99825.71;;;10.67;81.62
79378;BME280;68959;53.132;17.984;2023-04-25T00:36:23;99824.22;;;10.61;81.84
79378;BME280;68959;53.132;17.984;2023-04-25T00:38:50;99833.50;;;10.59;81.19
79378;BME280;68959;53.132;17.984;2023-04-25T00:41:16;99830.73;;;10.54;80.83
79378;BME280;68959;53.132;17.984;2023-04-25T00:43:44;99834.60;;;10.48;80.02
79378;BME280;68959;53.132;17.984;2023-04-25T00:46:12;99841.61;;;10.43;80.23
79378;BME280;68959;53.132;17.984;2023-04-25T00:48:38;99839.45;;;10.38;79.69
79378;BME280;68959;53.132;17.984;2023-04-25T00:51:05;99840.60;;;10.34;79.89
79378;BME280;68959;53.132;17.984;2023-04-25T00:53:33;99845.89;;;10.31;79.28
79378;BME280;68959;53.132;17.984;2023-04-25T00:56:00;99846.64;;;10.26;79.34
79378;BME280;68959;53.132;17.984;2023-04-25T00:58:26;99849.52;;;10.21;78.95
79378;BME280;68959;53.132;17.984;2023-04-25T01:00:53;99851.05;;;10.17;79.49
79378;BME280;68959;53.132;17.984;2023-04-25T01:03:21;99847.64;;;10.13;79.93
79378;BME280;68959;53.132;17.984;2023-04-25T01:05:48;99846.34;;;10.08;80.40
79378;BME280;68959;53.132;17.984;2023-04-25T01:08:15;99849.75;;;10.05;80.71
79378;BME280;68959;53.132;17.984;2023-04-25T01:10:42;99847.95;;;10.01;80.23
79378;BME280;68959;53.132;17.984;2023-04-25T01:13:09;99849.19;;;9.99;80.50
79378;BME280;68959;53.132;17.984;2023-04-25T01:15:36;99846.77;;;9.97;80.50
79378;BME280;68959;53.132;17.984;2023-04-25T01:18:04;99848.56;;;9.95;80.17
79378;BME280;68959;53.132;17.984;2023-04-25T01:20:32;99846.48;;;9.93;80.14
79378;BME280;68959;53.132;17.984;2023-04-25T01:23:01;99846.54;;;9.92;79.87
79378;BME280;68959;53.132;17.984;2023-04-25T01:25:32;99849.85;;;9.92;79.39
79378;BME280;68959;53.132;17.984;2023-04-25T01:27:59;99853.41;;;9.90;79.04
79378;BME280;68959;53.132;17.984;2023-04-25T01:30:27;99850.13;;;9.86;77.90
79378;BME280;68959;53.132;17.984;2023-04-25T01:32:55;99856.71;;;9.84;78.60
79378;BME280;68959;53.132;17.984;2023-04-25T01:35:23;99856.83;;;9.83;78.76
79378;BME280;68959;53.132;17.984;2023-04-25T01:37:53;99855.30;;;9.80;78.49
79378;BME280;68959;53.132;17.984;2023-04-25T01:40:21;99857.75;;;9.78;78.79
79378;BME280;68959;53.132;17.984;2023-04-25T01:42:49;99858.60;;;9.75;78.78
79378;BME280;68959;53.132;17.984;2023-04-25T01:45:17;99857.41;;;9.71;78.81
79378;BME280;68959;53.132;17.984;2023-04-25T01:47:44;99861.73;;;9.67;78.81
79378;BME280;68959;53.132;17.984;2023-04-25T01:50:18;99868.95;;;9.62;78.80
79378;BME280;68959;53.132;17.984;2023-04-25T01:52:45;99867.66;;;9.57;79.10
79378;BME280;68959;53.132;17.984;2023-04-25T01:55:13;99871.52;;;9.52;79.19
79378;BME280;68959;53.132;17.984;2023-04-25T01:57:48;99868.79;;;9.46;79.34
79378;BME280;68959;53.132;17.984;2023-04-25T02:00:16;99872.77;;;9.44;79.08
79378;BME280;68959;53.132;17.984;2023-04-25T02:02:43;99873.02;;;9.40;79.64
79378;BME280;68959;53.132;17.984;2023-04-25T02:05:27;99870.95;;;9.36;79.83
79378;BME280;68959;53.132;17.984;2023-04-25T02:07:53;99879.14;;;9.31;80.09
79378;BME280;68959;53.132;17.984;2023-04-25T02:10:20;99878.10;;;9.28;80.02
79378;BME280;68959;53.132;17.984;2023-04-25T02:13:07;99884.96;;;9.22;80.13
79378;BME280;68959;53.132;17.984;2023-04-25T02:15:43;99885.32;;;9.17;80.28
79378;BME280;68959;53.132;17.984;2023-04-25T02:18:15;99885.46;;;9.10;80.38
79378;BME280;68959;53.132;17.984;2023-04-25T02:20:45;99888.41;;;9.04;80.29
79378;BME280;68959;53.132;17.984;2023-04-25T02:23:11;99893.22;;;9.01;80.46
79378;BME280;68959;53.132;17.984;2023-04-25T02:25:38;99894.30;;;8.95;80.30
79378;BME280;68959;53.132;17.984;2023-04-25T02:28:05;99892.72;;;8.89;80.28
79378;BME280;68959;53.132;17.984;2023-04-25T02:30:31;99886.89;;;8.86;80.41
79378;BME280;68959;53.132;17.984;2023-04-25T02:32:58;99888.98;;;8.85;80.32
79378;BME280;68959;53.132;17.984;2023-04-25T02:35:25;99896.66;;;8.81;80.05
79378;BME280;68959;53.132;17.984;2023-04-25T02:37:54;99896.84;;;8.74;80.20
79378;BME280;68959;53.132;17.984;2023-04-25T02:40:21;99899.08;;;8.67;79.99
79378;BME280;68959;53.132;17.984;2023-04-25T02:42:47;99895.48;;;8.60;79.91
79378;BME280;68959;53.132;17.984;2023-04-25T02:45:14;99898.42;;;8.56;80.01
79378;BME280;68959;53.132;17.984;2023-04-25T02:47:41;99897.33;;;8.51;80.15
79378;BME280;68959;53.132;17.984;2023-04-25T02:50:08;99896.23;;;8.50;80.20
79378;BME280;68959;53.132;17.984;2023-04-25T02:52:35;99898.05;;;8.47;80.09
79378;BME280;68959;53.132;17.984;2023-04-25T02:55:08;99899.83;;;8.42;79.68
79378;BME280;68959;53.132;17.984;2023-04-25T02:57:36;99903.69;;;8.39;79.80
79378;BME280;68959;53.132;17.984;2023-04-25T03:00:03;99900.23;;;8.38;79.70
79378;BME280;68959;53.132;17.984;2023-04-25T03:02:31;99903.09;;;8.35;79.79
79378;BME280;68959;53.132;17.984;2023-04-25T03:04:58;99902.77;;;8.29;79.72
79378;BME280;68959;53.132;17.984;2023-04-25T03:07:25;99905.65;;;8.24;79.89
79378;BME280;68959;53.132;17.984;2023-04-25T03:09:51;99905.98;;;8.18;79.98
79378;BME280;68959;53.132;17.984;2023-04-25T03:12:18;99901.15;;;8.11;79.71
79378;BME280;68959;53.132;17.984;2023-04-25T03:14:45;99903.01;;;8.05;79.84
79378;BME280;68959;53.132;17.984;2023-04-25T03:17:11;99903.34;;;7.99;79.62
79378;BME280;68959;53.132;17.984;2023-04-25T03:19:39;99903.02;;;7.92;79.83
79378;BME280;68959;53.132;17.984;2023-04-25T03:22:05;99907.08;;;7.86;79.94
79378;BME280;68959;53.132;17.984;2023-04-25T03:24:32;99905.92;;;7.81;80.08
79378;BME280;68959;53.132;17.984;2023-04-25T03:26:59;99905.09;;;7.75;80.01
79378;BME280;68959;53.132;17.984;2023-04-25T03:29:27;99904.80;;;7.71;80.01
79378;BME280;68959;53.132;17.984;2023-04-25T03:31:55;99907.48;;;7.67;79.94
79378;BME280;68959;53.132;17.984;2023-04-25T03:34:22;99906.27;;;7.64;79.98
79378;BME280;68959;53.132;17.984;2023-04-25T03:36:49;99909.23;;;7.62;79.93
79378;BME280;68959;53.132;17.984;2023-04-25T03:39:15;99910.16;;;7.59;79.88
79378;BME280;68959;53.132;17.984;2023-04-25T03:41:46;99911.05;;;7.56;80.14
79378;BME280;68959;53.132;17.984;2023-04-25T03:44:14;99915.02;;;7.55;80.12
79378;BME280;68959;53.132;17.984;2023-04-25T03:46:41;99916.88;;;7.55;80.07
79378;BME280;68959;53.132;17.984;2023-04-25T03:49:08;99921.44;;;7.56;79.88
79378;BME280;68959;53.132;17.984;2023-04-25T03:51:55;99925.85;;;7.57;79.79
79378;BME280;68959;53.132;17.984;2023-04-25T03:54:22;99929.75;;;7.57;79.83
79378;BME280;68959;53.132;17.984;2023-04-25T03:57:09;99930.85;;;7.53;79.64
79378;BME280;68959;53.132;17.984;2023-04-25T03:59:38;99935.45;;;7.51;79.52
79378;BME280;68959;53.132;17.984;2023-04-25T04:02:05;99940.30;;;7.52;79.48
79378;BME280;68959;53.132;17.984;2023-04-25T04:04:34;99939.09;;;7.51;79.49
79378;BME280;68959;53.132;17.984;2023-04-25T04:07:01;99945.02;;;7.50;79.25
79378;BME280;68959;53.132;17.984;2023-04-25T04:09:30;99946.84;;;7.48;79.01
79378;BME280;68959;53.132;17.984;2023-04-25T04:11:59;99949.31;;;7.48;78.99
79378;BME280;68959;53.132;17.984;2023-04-25T04:14:28;99949.31;;;7.49;79.12
79378;BME280;68959;53.132;17.984;2023-04-25T04:16:55;99950.31;;;7.51;78.88
79378;BME280;68959;53.132;17.984;2023-04-25T04:19:23;99955.15;;;7.52;78.62
79378;BME280;68959;53.132;17.984;2023-04-25T04:21:57;99963.63;;;7.53;78.48
79378;BME280;68959;53.132;17.984;2023-04-25T04:24:24;99966.55;;;7.54;78.43
79378;BME280;68959;53.132;17.984;2023-04-25T04:26:56;99964.14;;;7.57;78.42
79378;BME280;68959;53.132;17.984;2023-04-25T04:29:36;99965.20;;;7.60;78.12
79378;BME280;68959;53.132;17.984;2023-04-25T04:32:29;99966.52;;;7.62;78.07
79378;BME280;68959;53.132;17.984;2023-04-25T04:34:57;99973.84;;;7.65;77.79
79378;BME280;68959;53.132;17.984;2023-04-25T04:37:25;99974.67;;;7.67;77.69
79378;BME280;68959;53.132;17.984;2023-04-25T04:39:51;99975.61;;;7.71;77.28
79378;BME280;68959;53.132;17.984;2023-04-25T04:42:43;99977.01;;;7.74;77.14
79378;BME280;68959;53.132;17.984;2023-04-25T04:45:32;99979.50;;;7.76;77.10
79378;BME280;68959;53.132;17.984;2023-04-25T04:48:18;99976.85;;;7.79;76.91
79378;BME280;68959;53.132;17.984;2023-04-25T04:50:57;99977.30;;;7.82;76.77
79378;BME280;68959;53.132;17.984;2023-04-25T04:53:49;99972.57;;;7.83;76.66
79378;BME280;68959;53.132;17.984;2023-04-25T04:56:29;99973.02;;;7.85;76.85
79378;BME280;68959;53.132;17.984;2023-04-25T04:59:26;99977.98;;;7.87;76.52
79378;BME280;68959;53.132;17.984;2023-04-25T05:02:08;99981.50;;;7.86;75.99
79378;BME280;68959;53.132;17.984;2023-04-25T05:04:55;99986.67;;;7.82;76.30
79378;BME280;68959;53.132;17.984;2023-04-25T05:07:42;99987.76;;;7.83;76.54
79378;BME280;68959;53.132;17.984;2023-04-25T05:10:25;99986.77;;;7.85;76.13
79378;BME280;68959;53.132;17.984;2023-04-25T05:13:12;99981.49;;;7.86;76.04
79378;BME280;68959;53.132;17.984;2023-04-25T05:15:54;99983.47;;;7.89;76.09
79378;BME280;68959;53.132;17.984;2023-04-25T05:18:59;99982.44;;;7.87;75.75
79378;BME280;68959;53.132;17.984;2023-04-25T05:21:39;99990.15;;;7.88;75.56
79378;BME280;68959;53.132;17.984;2023-04-25T05:24:24;99988.17;;;7.92;75.47
79378;BME280;68959;53.132;17.984;2023-04-25T05:27:09;99988.80;;;8.01;75.21
79378;BME280;68959;53.132;17.984;2023-04-25T05:30:05;99986.60;;;8.13;75.08
79378;BME280;68959;53.132;17.984;2023-04-25T05:32:54;99986.51;;;8.26;74.57
79378;BME280;68959;53.132;17.984;2023-04-25T05:35:22;99986.48;;;8.37;74.33
79378;BME280;68959;53.132;17.984;2023-04-25T05:37:49;99989.80;;;8.53;73.77
79378;BME280;68959;53.132;17.984;2023-04-25T05:40:17;99990.70;;;8.70;72.54
79378;BME280;68959;53.132;17.984;2023-04-25T05:43:05;99989.05;;;8.84;72.51
79378;BME280;68959;53.132;17.984;2023-04-25T05:45:45;99991.55;;;8.99;72.19
79378;BME280;68959;53.132;17.984;2023-04-25T05:48:29;99992.98;;;9.17;71.52
79378;BME280;68959;53.132;17.984;2023-04-25T05:51:19;99992.23;;;9.27;71.29
79378;BME280;68959;53.132;17.984;2023-04-25T05:54:04;99990.24;;;9.33;71.18
79378;BME280;68959;53.132;17.984;2023-04-25T05:56:32;99989.46;;;9.36;71.00
79378;BME280;68959;53.132;17.984;2023-04-25T05:58:59;99995.78;;;9.43;70.88
79378;BME280;68959;53.132;17.984;2023-04-25T06:01:26;99997.54;;;9.43;70.10
79378;BME280;68959;53.132;17.984;2023-04-25T06:03:52;99999.56;;;9.32;69.57
79378;BME280;68959;53.132;17.984;2023-04-25T06:06:19;99998.48;;;9.22;69.82
79378;BME280;68959;53.132;17.984;2023-04-25T06:08:46;99996.81;;;9.14;70.46
79378;BME280;68959;53.132;17.984;2023-04-25T06:11:13;99995.48;;;9.14;71.27
79378;BME280;68959;53.132;17.984;2023-04-25T06:13:42;99989.46;;;9.18;70.82
79378;BME280;68959;53.132;17.984;2023-04-25T06:16:09;99996.83;;;9.24;70.77
79378;BME280;68959;53.132;17.984;2023-04-25T06:18:39;99994.45;;;9.24;69.98
79378;BME280;68959;53.132;17.984;2023-04-25T06:21:05;99995.33;;;9.27;70.50
79378;BME280;68959;53.132;17.984;2023-04-25T06:23:32;99997.73;;;9.37;70.08
79378;BME280;68959;53.132;17.984;2023-04-25T06:26:03;99998.58;;;9.44;69.60
79378;BME280;68959;53.132;17.984;2023-04-25T06:28:30;99997.55;;;9.54;69.44
79378;BME280;68959;53.132;17.984;2023-04-25T06:30:57;99995.51;;;9.65;69.06
79378;BME280;68959;53.132;17.984;2023-04-25T06:33:24;99993.85;;;9.96;68.65
79378;BME280;68959;53.132;17.984;2023-04-25T06:35:56;99990.12;;;10.30;67.46
79378;BME280;68959;53.132;17.984;2023-04-25T06:38:25;99991.92;;;10.84;67.70
79378;BME280;68959;53.132;17.984;2023-04-25T06:40:52;99988.84;;;11.38;64.98
79378;BME280;68959;53.132;17.984;2023-04-25T06:43:19;99981.90;;;11.58;62.82
79378;BME280;68959;53.132;17.984;2023-04-25T06:46:04;99977.40;;;11.82;63.03
79378;BME280;68959;53.132;17.984;2023-04-25T06:48:33;99978.30;;;12.05;62.24
79378;BME280;68959;53.132;17.984;2023-04-25T06:50:59;99978.95;;;12.09;60.70
79378;BME280;68959;53.132;17.984;2023-04-25T06:53:26;99975.00;;;11.99;60.51
79378;BME280;68959;53.132;17.984;2023-04-25T06:56:01;99975.83;;;11.87;60.76
79378;BME280;68959;53.132;17.984;2023-04-25T06:58:37;99980.95;;;12.02;60.42
79378;BME280;68959;53.132;17.984;2023-04-25T07:01:15;99970.64;;;12.27;59.07
79378;BME280;68959;53.132;17.984;2023-04-25T07:03:42;99973.17;;;12.42;59.21
79378;BME280;68959;53.132;17.984;2023-04-25T07:06:13;99973.77;;;12.59;58.37
79378;BME280;68959;53.132;17.984;2023-04-25T07:08:39;99971.66;;;12.66;57.50
79378;BME280;68959;53.132;17.984;2023-04-25T07:11:07;99969.87;;;13.19;56.64
79378;BME280;68959;53.132;17.984;2023-04-25T07:13:33;99967.02;;;13.61;55.64
79378;BME280;68959;53.132;17.984;2023-04-25T07:16:00;99964.82;;;13.88;54.84
79378;BME280;68959;53.132;17.984;2023-04-25T07:18:27;99970.57;;;14.09;54.58
79378;BME280;68959;53.132;17.984;2023-04-25T07:20:56;99968.98;;;14.42;51.53
79378;BME280;68959;53.132;17.984;2023-04-25T07:23:23;99973.67;;;14.23;52.03
79378;BME280;68959;53.132;17.984;2023-04-25T07:25:51;99976.20;;;14.10;54.04
79378;BME280;68959;53.132;17.984;2023-04-25T07:28:21;99969.77;;;14.49;52.91
79378;BME280;68959;53.132;17.984;2023-04-25T07:30:47;99972.28;;;14.58;52.09
79378;BME280;68959;53.132;17.984;2023-04-25T07:33:14;99969.70;;;14.88;51.48
79378;BME280;68959;53.132;17.984;2023-04-25T07:35:41;99973.35;;;15.29;51.18
79378;BME280;68959;53.132;17.984;2023-04-25T07:38:07;99975.84;;;15.38;48.92
79378;BME280;68959;53.132;17.984;2023-04-25T07:40:34;99978.83;;;15.04;50.48
79378;BME280;68959;53.132;17.984;2023-04-25T07:43:05;99974.60;;;14.81;52.13
79378;BME280;68959;53.132;17.984;2023-04-25T07:45:37;99978.84;;;14.52;52.87
79378;BME280;68959;53.132;17.984;2023-04-25T07:48:04;99982.14;;;14.18;51.93
79378;BME280;68959;53.132;17.984;2023-04-25T07:50:31;99992.60;;;13.83;52.91
79378;BME280;68959;53.132;17.984;2023-04-25T07:52:58;99992.73;;;13.48;53.85
79378;BME280;68959;53.132;17.984;2023-04-25T07:55:29;99993.65;;;13.24;54.44
79378;BME280;68959;53.132;17.984;2023-04-25T07:58:09;99994.88;;;13.13;56.12
79378;BME280;68959;53.132;17.984;2023-04-25T08:00:40;99998.55;;;13.01;55.15
79378;BME280;68959;53.132;17.984;2023-04-25T08:03:24;100007.05;;;12.85;55.77
79378;BME280;68959;53.132;17.984;2023-04-25T08:05:51;100007.27;;;12.72;56.56
79378;BME280;68959;53.132;17.984;2023-04-25T08:08:19;100001.65;;;12.56;56.47
79378;BME280;68959;53.132;17.984;2023-04-25T08:10:46;100003.04;;;12.43;57.52
79378;BME280;68959;53.132;17.984;2023-04-25T08:13:15;100003.52;;;12.37;58.07
79378;BME280;68959;53.132;17.984;2023-04-25T08:15:42;100008.54;;;12.35;57.69
79378;BME280;68959;53.132;17.984;2023-04-25T08:18:08;100007.00;;;12.31;57.92
79378;BME280;68959;53.132;17.984;2023-04-25T08:20:35;100013.16;;;12.34;57.64
79378;BME280;68959;53.132;17.984;2023-04-25T08:23:03;100013.65;;;12.42;57.65
79378;BME280;68959;53.132;17.984;2023-04-25T08:25:59;100018.10;;;12.65;57.55
79378;BME280;68959;53.132;17.984;2023-04-25T08:28:27;100016.30;;;12.85;57.07
79378;BME280;68959;53.132;17.984;2023-04-25T08:30:54;100015.77;;;13.03;56.16
79378;BME280;68959;53.132;17.984;2023-04-25T08:33:21;100013.51;;;13.28;56.62
79378;BME280;68959;53.132;17.984;2023-04-25T08:35:48;100021.20;;;13.60;55.68
79378;BME280;68959;53.132;17.984;2023-04-25T08:38:15;100020.75;;;13.68;54.02
79378;BME280;68959;53.132;17.984;2023-04-25T08:40:43;100018.59;;;13.57;54.26
79378;BME280;68959;53.132;17.984;2023-04-25T08:43:18;100020.33;;;13.46;53.94
79378;BME280;68959;53.132;17.984;2023-04-25T08:45:46;100018.13;;;13.30;54.61
79378;BME280;68959;53.132;17.984;2023-04-25T08:48:20;100018.66;;;13.26;55.09
79378;BME280;68959;53.132;17.984;2023-04-25T08:50:53;100018.19;;;13.15;55.39
79378;BME280;68959;53.132;17.984;2023-04-25T08:53:31;100023.11;;;12.99;55.13
79378;BME280;68959;53.132;17.984;2023-04-25T08:56:01;100020.52;;;12.85;55.88
79378;BME280;68959;53.132;17.984;2023-04-25T08:58:28;100023.23;;;12.84;56.55
79378;BME280;68959;53.132;17.984;2023-04-25T09:00:56;100027.24;;;12.85;55.79
79378;BME280;68959;53.132;17.984;2023-04-25T09:03:25;100027.64;;;12.91;55.91
79378;BME280;68959;53.132;17.984;2023-04-25T09:05:52;100030.65;;;13.06;55.40
79378;BME280;68959;53.132;17.984;2023-04-25T09:08:22;100032.67;;;13.19;54.39
79378;BME280;68959;53.132;17.984;2023-04-25T09:10:49;100034.52;;;13.30;53.88
79378;BME280;68959;53.132;17.984;2023-04-25T09:13:24;100037.39;;;13.42;54.01
79378;BME280;68959;53.132;17.984;2023-04-25T09:16:15;100036.05;;;13.54;53.32
79378;BME280;68959;53.132;17.984;2023-04-25T09:19:24;100036.83;;;13.68;52.99
79378;BME280;68959;53.132;17.984;2023-04-25T09:21:58;100043.83;;;13.83;53.23
79378;BME280;68959;53.132;17.984;2023-04-25T09:26:57;100039.09;;;14.38;50.98
79378;BME280;68959;53.132;17.984;2023-04-25T09:29:32;100037.27;;;14.45;49.81
79378;BME280;68959;53.132;17.984;2023-04-25T09:32:19;100035.68;;;14.55;49.83
79378;BME280;68959;53.132;17.984;2023-04-25T09:34:49;100038.07;;;14.67;50.20
79378;BME280;68959;53.132;17.984;2023-04-25T09:37:22;100033.62;;;14.91;49.41
79378;BME280;68959;53.132;17.984;2023-04-25T09:40:08;100032.35;;;15.83;48.56
79378;BME280;68959;53.132;17.984;2023-04-25T09:42:47;100034.60;;;16.46;46.19
79378;BME280;68959;53.132;17.984;2023-04-25T09:45:14;100039.07;;;16.61;44.00
79378;BME280;68959;53.132;17.984;2023-04-25T09:47:44;100039.31;;;16.40;43.42
79378;BME280;68959;53.132;17.984;2023-04-25T09:50:16;100036.55;;;15.97;44.11
79378;BME280;68959;53.132;17.984;2023-04-25T09:52:45;100047.59;;;15.51;45.15
79378;BME280;68959;53.132;17.984;2023-04-25T09:55:23;100042.81;;;15.12;46.68
79378;BME280;68959;53.132;17.984;2023-04-25T09:57:52;100052.46;;;14.97;47.24
79378;BME280;68959;53.132;17.984;2023-04-25T10:00:20;100055.54;;;14.87;47.04
79378;BME280;68959;53.132;17.984;2023-04-25T10:02:48;100058.36;;;14.79;47.10
79378;BME280;68959;53.132;17.984;2023-04-25T10:05:38;100057.50;;;14.82;47.95
79378;BME280;68959;53.132;17.984;2023-04-25T10:08:07;100057.69;;;14.97;47.88
79378;BME280;68959;53.132;17.984;2023-04-25T10:10:35;100054.81;;;15.09;46.46
79378;BME280;68959;53.132;17.984;2023-04-25T10:13:05;100058.34;;;15.17;46.75
79378;BME280;68959;53.132;17.984;2023-04-25T10:15:35;100057.13;;;15.10;47.29
79378;BME280;68959;53.132;17.984;2023-04-25T10:18:06;100057.95;;;14.98;47.50
79378;BME280;68959;53.132;17.984;2023-04-25T10:20:32;100067.60;;;14.81;47.22
79378;BME280;68959;53.132;17.984;2023-04-25T10:23:08;100068.51;;;14.67;48.31
79378;BME280;68959;53.132;17.984;2023-04-25T10:25:37;100063.93;;;14.63;49.04
79378;BME280;68959;53.132;17.984;2023-04-25T10:28:04;100065.13;;;14.61;49.12
79378;BME280;68959;53.132;17.984;2023-04-25T10:30:31;100063.08;;;14.52;48.98
79378;BME280;68959;53.132;17.984;2023-04-25T10:32:59;100062.05;;;14.53;49.50
79378;BME280;68959;53.132;17.984;2023-04-25T10:35:29;100065.89;;;14.60;47.88
79378;BME280;68959;53.132;17.984;2023-04-25T10:38:02;100070.67;;;14.60;47.51
79378;BME280;68959;53.132;17.984;2023-04-25T10:40:31;100074.52;;;14.62;47.21
79378;BME280;68959;53.132;17.984;2023-04-25T10:46:25;100067.96;;;15.07;46.68
79378;BME280;68959;53.132;17.984;2023-04-25T10:48:54;100070.80;;;15.18;45.91
79378;BME280;68959;53.132;17.984;2023-04-25T10:51:29;100068.59;;;15.29;45.01
79378;BME280;68959;53.132;17.984;2023-04-25T10:54:05;100069.67;;;15.73;43.90
79378;BME280;68959;53.132;17.984;2023-04-25T10:56:35;100063.89;;;15.58;44.78
79378;BME280;68959;53.132;17.984;2023-04-25T10:59:10;100069.23;;;15.42;45.02
79378;BME280;68959;53.132;17.984;2023-04-25T11:01:41;100074.30;;;15.32;45.00
79378;BME280;68959;53.132;17.984;2023-04-25T11:04:24;100069.80;;;15.21;44.71
79378;BME280;68959;53.132;17.984;2023-04-25T11:09:18;100065.71;;;15.31;44.23
79378;BME280;68959;53.132;17.984;2023-04-25T11:11:57;100071.77;;;15.29;44.05
79378;BME280;68959;53.132;17.984;2023-04-25T11:14:25;100070.05;;;15.16;44.37
79378;BME280;68959;53.132;17.984;2023-04-25T11:16:58;100071.64;;;15.02;45.43
79378;BME280;68959;53.132;17.984;2023-04-25T11:19:26;100079.41;;;14.78;46.06
79378;BME280;68959;53.132;17.984;2023-04-25T11:21:57;100079.20;;;14.45;46.69
79378;BME280;68959;53.132;17.984;2023-04-25T11:24:28;100082.91;;;14.09;47.02
79378;BME280;68959;53.132;17.984;2023-04-25T11:26:56;100086.09;;;13.77;48.08
79378;BME280;68959;53.132;17.984;2023-04-25T11:29:23;100088.00;;;13.44;48.79
79378;BME280;68959;53.132;17.984;2023-04-25T11:31:50;100092.25;;;13.15;49.36
79378;BME280;68959;53.132;17.984;2023-04-25T11:34:18;100090.13;;;12.97;50.34
79378;BME280;68959;53.132;17.984;2023-04-25T11:36:45;100087.00;;;12.88;50.34
79378;BME280;68959;53.132;17.984;2023-04-25T11:39:12;100088.34;;;12.88;50.89
79378;BME280;68959;53.132;17.984;2023-04-25T11:41:41;100089.59;;;12.97;50.71
79378;BME280;68959;53.132;17.984;2023-04-25T11:44:08;100091.80;;;13.07;50.39
79378;BME280;68959;53.132;17.984;2023-04-25T11:46:34;100090.42;;;13.11;49.77
79378;BME280;68959;53.132;17.984;2023-04-25T11:49:02;100092.45;;;13.22;49.95
79378;BME280;68959;53.132;17.984;2023-04-25T11:51:29;100093.50;;;13.44;49.22
79378;BME280;68959;53.132;17.984;2023-04-25T11:53:56;100090.48;;;13.65;49.41
79378;BME280;68959;53.132;17.984;2023-04-25T11:56:23;100093.95;;;13.89;48.49
79378;BME280;68959;53.132;17.984;2023-04-25T11:59:02;100095.23;;;14.03;47.52
79378;BME280;68959;53.132;17.984;2023-04-25T12:01:33;100097.11;;;14.19;47.36
79378;BME280;68959;53.132;17.984;2023-04-25T12:04:21;100096.02;;;14.36;47.13
79378;BME280;68959;53.132;17.984;2023-04-25T12:06:50;100093.95;;;14.57;47.06
79378;BME280;68959;53.132;17.984;2023-04-25T12:09:27;100090.80;;;14.79;46.83
79378;BME280;68959;53.132;17.984;2023-04-25T12:11:55;100089.83;;;15.03;44.94
79378;BME280;68959;53.132;17.984;2023-04-25T12:14:27;100089.55;;;15.25;45.11
79378;BME280;68959;53.132;17.984;2023-04-25T12:16:56;100092.77;;;15.41;43.12
79378;BME280;68959;53.132;17.984;2023-04-25T12:19:24;100091.63;;;15.52;43.35
79378;BME280;68959;53.132;17.984;2023-04-25T12:21:51;100089.55;;;15.96;43.08
79378;BME280;68959;53.132;17.984;2023-04-25T12:24:23;100092.20;;;16.35;41.93
79378;BME280;68959;53.132;17.984;2023-04-25T12:29:28;100085.01;;;17.22;40.40
79378;BME280;68959;53.132;17.984;2023-04-25T12:31:55;100083.91;;;17.58;39.93
79378;BME280;68959;53.132;17.984;2023-04-25T12:34:23;100078.83;;;17.70;40.30
79378;BME280;68959;53.132;17.984;2023-04-25T12:36:50;100085.70;;;17.85;39.07
79378;BME280;68959;53.132;17.984;2023-04-25T12:39:21;100080.67;;;17.90;39.73
79378;BME280;68959;53.132;17.984;2023-04-25T12:41:51;100083.56;;;17.99;39.79
79378;BME280;68959;53.132;17.984;2023-04-25T12:44:21;100084.88;;;18.14;39.68
79378;BME280;68959;53.132;17.984;2023-04-25T12:46:48;100090.64;;;18.11;38.53
79378;BME280;68959;53.132;17.984;2023-04-25T12:49:15;100085.94;;;18.00;38.60
79378;BME280;68959;53.132;17.984;2023-04-25T12:51:42;100085.44;;;18.24;38.79
79378;BME280;68959;53.132;17.984;2023-04-25T12:54:08;100086.77;;;18.55;36.93
79378;BME280;68959;53.132;17.984;2023-04-25T12:56:35;100087.46;;;18.73;36.17
79378;BME280;68959;53.132;17.984;2023-04-25T12:59:02;100084.55;;;18.68;36.64
79378;BME280;68959;53.132;17.984;2023-04-25T13:01:29;100078.73;;;18.56;36.41
79378;BME280;68959;53.132;17.984;2023-04-25T13:03:56;100079.30;;;18.37;37.24
79378;BME280;68959;53.132;17.984;2023-04-25T13:06:22;100071.52;;;18.26;37.76
79378;BME280;68959;53.132;17.984;2023-04-25T13:08:49;100076.62;;;18.18;37.73
79378;BME280;68959;53.132;17.984;2023-04-25T13:11:16;100082.01;;;17.66;37.19
79378;BME280;68959;53.132;17.984;2023-04-25T13:13:43;100078.76;;;17.08;38.85
79378;BME280;68959;53.132;17.984;2023-04-25T13:16:10;100084.77;;;16.58;39.61
79378;BME280;68959;53.132;17.984;2023-04-25T13:18:37;100083.41;;;16.17;40.73
79378;BME280;68959;53.132;17.984;2023-04-25T13:21:04;100084.58;;;15.73;41.62